イスタンブル の空港の天気 - METARとTAF

アタテュルク国際空港(イスタンブル) ( LTBA / IST ) - トルコ イスタンブル
飛行場実況気象(Metar)
観測時間01/23 06:58 EET (01/23 03:58 UTC)
風向・風速北 7m/s
視程7000m
天気現象弱いしゅう雨
全天の4割程度の雲 雲底高度 460m
全天の8割程度の雲 雲底高度 670m
気温4℃
湿度81%
気圧1016hPa
METARLTBA 230358Z 35014KT 7000 -SHRA SCT015 BKN022 04/01 Q1016 NOSIG RMK RWY17L 36012KT 340V040 RWY05 34012KT 320V020 RWY23 01011KT 340V040
過去の天気等 Google飛行場航空写真 Wunderground天気予報

過去48時間のMETAR

飛行場予報(TAF)
発表時間: 1/23 01:40 EET (1/22 22:40 UTC)
予報対象時間: 23日3時 EET ~ 24日9時 EET
風向・風速北 9m/s 瞬間風速 14m/s
視程6,000m
全天の4割程度の雲 雲底高度 300m
全天の8割程度の雲 雲底高度 670m
23日3時 EET ~ 23日7時 EET に一時的に
天気現象弱いしゅう雨
23日7時 EET ~ 23日11時 EET に 確率 30% で一時的に
天気現象弱いしゅう雪雨
23日11時 EET ~ 23日14時 EET に徐々に
天気現象弱いしゅう雨
23日23時 EET ~ 24日2時 EET に 確率 30% で一時的に
天気現象弱いしゅう雨雪
24日2時 EET から 確率 40% で
天気現象弱いしゅう雪
TAF LTBA 222240Z 2300/2406 35017G27KT 6000 SCT010 BKN022
TEMPO 2300/2304 -SHRA
PROB30 TEMPO 2304/2308 -SHSNRA
BECMG 2308/2311 -SHRA
PROB30 TEMPO 2320/2323 -SHRASN
PROB40 2323/2402 -SHSN